»·PEaware :: N180NY KSAN-KSNA

N180NY :: KSAN-KSNA

FLIGHT INFORMATION

Flight Status: Arrived
Operator: Privately registered:
United States
More flights under this callsign
Pilot: Anonymous 30780 (30780)
Aircraft: DORNIER 228
(D228)
More flights by this aircraft type
Origin: KSAN San Diego Intl-Lindbergh
United States
Destination: KSNA John Wayne-Orange Co
United States
More flights between these airports :: More routes between these airports
Route: +CWARD2 SLI
File this flight plan on PilotEdge
Remarks: SANP3
Altitude:
(Current/Filed)
6,000ft
Speed:
(Current/Filed)
240kts
Departed: 28-Jul-20 10:04 AM
Arrived: 28-Jul-20 10:42 AM
Distance/Time
Traveled:
66nm/0:38
Distance/Time
To Go:
Arrived

Flight Plot

Page will automatically refresh every two minutes.


Map Options




Map Legend


Flown Route
Filed Route
Departure Airport
Arrival Airport
Navaid (VOR, NDB)
Fix

Horizontal Profiles

Position Reports

Time Latitude Longitude Heading Altitude Ground
Speed
28-Jul-20 09:43 32.735271 -117.189293 196 23ft 0kts
28-Jul-20 09:44 32.735271 -117.189293 196 23ft 0kts
28-Jul-20 09:45 32.735271 -117.189293 196 23ft 0kts
28-Jul-20 09:46 32.735271 -117.189293 196 23ft 0kts
28-Jul-20 09:47 32.735271 -117.189293 196 23ft 0kts
28-Jul-20 09:48 32.735271 -117.189293 196 23ft 0kts
28-Jul-20 09:49 32.735271 -117.189293 196 23ft 0kts
28-Jul-20 09:50 32.735271 -117.189293 196 23ft 0kts
28-Jul-20 09:50 32.735271 -117.189293 196 23ft 0kts
28-Jul-20 09:51 32.735271 -117.189293 196 23ft 0kts
28-Jul-20 09:53 32.735271 -117.189293 196 23ft 0kts
28-Jul-20 09:53 32.735271 -117.189293 196 23ft 0kts
28-Jul-20 09:54 32.735271 -117.189293 196 23ft 0kts
28-Jul-20 09:55 32.735271 -117.189293 196 23ft 0kts
28-Jul-20 09:56 32.735271 -117.189293 196 23ft 0kts
28-Jul-20 09:57 32.735271 -117.189293 196 23ft 0kts
28-Jul-20 09:58 32.735271 -117.189293 196 23ft 0kts
28-Jul-20 09:59 32.735271 -117.189293 196 23ft 0kts
28-Jul-20 10:00 32.735153 -117.189311 185 23ft 0kts
28-Jul-20 10:01 32.734667 -117.189035 147 23ft 9kts
28-Jul-20 10:02 32.733250 -117.183647 104 23ft 26kts
28-Jul-20 10:03 32.732463 -117.180498 101 23ft 43kts
28-Jul-20 10:04 32.731732 -117.177539 106 23ft 0kts
28-Jul-20 10:05 32.730995 -117.175465 152 23ft 0kts
28-Jul-20 10:06 32.732116 -117.183760 288 24ft 109kts
28-Jul-20 10:07 32.747805 -117.220031 309 1623ft 139kts
28-Jul-20 10:08 32.777539 -117.235550 356 3730ft 140kts
28-Jul-20 10:09 32.805160 -117.273782 296 4787ft 174kts
28-Jul-20 10:10 32.825507 -117.328030 286 5797ft 183kts
28-Jul-20 10:11 32.847565 -117.382872 305 6802ft 186kts
28-Jul-20 10:12 32.878487 -117.431937 307 7775ft 186kts
28-Jul-20 10:13 32.911905 -117.483891 307 7987ft 209kts
28-Jul-20 10:14 32.948163 -117.540408 307 7986ft 217kts
28-Jul-20 10:15 32.984962 -117.597881 307 7986ft 219kts
28-Jul-20 10:16 33.021981 -117.655692 307 7987ft 219kts
28-Jul-20 10:17 33.059012 -117.713603 307 7991ft 219kts
28-Jul-20 10:18 33.103373 -117.763232 320 8001ft 219kts
28-Jul-20 10:19 33.149892 -117.810244 319 8002ft 219kts
28-Jul-20 10:20 33.197075 -117.856222 335 8000ft 218kts
28-Jul-20 10:21 33.257329 -117.859779 2 8003ft 218kts
28-Jul-20 10:22 33.317401 -117.857102 2 7998ft 211kts
28-Jul-20 10:23 33.375357 -117.854463 2 7997ft 206kts
28-Jul-20 10:24 33.427751 -117.849450 10 7481ft 223kts
28-Jul-20 10:25 33.488160 -117.836408 10 6477ft 210kts
28-Jul-20 10:26 33.542573 -117.824125 10 6001ft 188kts
28-Jul-20 10:27 33.593268 -117.812513 10 5999ft 186kts
28-Jul-20 10:28 33.636601 -117.796328 22 5999ft 186kts
28-Jul-20 10:29 33.683535 -117.772420 22 5999ft 179kts
28-Jul-20 10:30 33.728686 -117.749359 22 5994ft 174kts
28-Jul-20 10:31 33.774274 -117.726066 22 5576ft 190kts
28-Jul-20 10:32 33.823603 -117.701144 22 4514ft 193kts
28-Jul-20 10:33 33.869884 -117.690945 319 3978ft 154kts
28-Jul-20 10:34 33.862200 -117.732286 232 3656ft 151kts
28-Jul-20 10:35 33.837630 -117.769230 218 3015ft 136kts
28-Jul-20 10:36 33.807713 -117.787717 199 3009ft 111kts
28-Jul-20 10:37 33.777216 -117.803365 206 2286ft 119kts
28-Jul-20 10:38 33.749058 -117.822427 208 1626ft 112kts
28-Jul-20 10:39 33.720559 -117.840158 212 980ft 109kts
28-Jul-20 10:40 33.694563 -117.856893 210 386ft 107kts
28-Jul-20 10:41 33.674141 -117.869886 214 64ft 18kts
28-Jul-20 10:42 33.674074 -117.871341 236 64ft 14kts

Navigation Log

Ident Type
Flight plan parsing failed, navigation log unavailable